Time;durP1;ratioP1;P1;durP2;ratioP2;P2;SDS_P1;SDS_P2;PMS_P1;PMS_P2;Temp;Humidity;BMP_temperature;BMP_pressure;BME280_temperature;BME280_humidity;BME280_pressure;Samples;Min_cycle;Max_cycle;Signal;HPM_P1;HPM_P2
2021/05/16 00:00:24;;;;;;;4.20;1.60;;;;;;;12.64;41.78;99822.78;3520925;40;20047;-72
2021/05/16 00:02:54;;;;;;;5.07;1.13;;;;;;;12.62;41.53;99819.31;3521378;40;20067;-72
2021/05/16 00:05:23;;;;;;;3.67;1.50;;;;;;;12.61;41.68;99812.13;3521503;40;20096;-72
2021/05/16 00:07:51;;;;;;;5.60;1.58;;;;;;;12.61;41.63;99816.75;3517813;40;20059;-72
2021/05/16 00:10:21;;;;;;;2.78;1.13;;;;;;;12.61;41.85;99812.13;3520579;40;20050;-72
2021/05/16 00:12:49;;;;;;;3.03;1.30;;;;;;;12.60;41.57;99813.16;3519501;40;20067;-72
2021/05/16 00:15:20;;;;;;;5.43;1.77;;;;;;;12.59;41.92;99808.72;3521309;40;20145;-72
2021/05/16 00:17:49;;;;;;;4.22;1.40;;;;;;;12.57;41.69;99809.91;3521695;40;20062;-72
2021/05/16 00:20:22;;;;;;;6.00;1.70;;;;;;;12.58;41.82;99808.88;3521264;40;20298;-73
2021/05/16 00:22:50;;;;;;;4.40;1.48;;;;;;;12.54;41.58;99802.00;3526266;40;20066;-72
2021/05/16 00:25:20;;;;;;;3.95;1.45;;;;;;;12.55;41.97;99804.59;3521871;40;20047;-72
2021/05/16 00:27:50;;;;;;;4.88;1.40;;;;;;;12.54;41.61;99797.38;3521367;40;20058;-72
2021/05/16 00:30:20;;;;;;;4.32;1.75;;;;;;;12.54;41.98;99793.78;3521238;40;20443;-72
2021/05/16 00:32:48;;;;;;;5.82;1.27;;;;;;;12.52;41.75;99793.09;3521659;40;20051;-73
2021/05/16 00:35:20;;;;;;;4.15;1.27;;;;;;;12.54;41.81;99794.63;3520512;40;20409;-72
2021/05/16 00:37:49;;;;;;;3.38;1.13;;;;;;;12.53;41.78;99795.66;3520990;40;20538;-72
2021/05/16 00:40:19;;;;;;;4.07;1.20;;;;;;;12.52;41.94;99793.94;3525983;40;20071;-72
2021/05/16 00:42:46;;;;;;;5.43;1.65;;;;;;;12.52;41.90;99796.69;3521203;40;20070;-72
2021/05/16 00:45:17;;;;;;;4.38;1.20;;;;;;;12.53;41.81;99800.28;3526345;40;20054;-72
2021/05/16 00:47:47;;;;;;;3.17;1.13;;;;;;;12.52;41.55;99793.94;3521214;40;20061;-73
2021/05/16 00:50:17;;;;;;;3.30;1.10;;;;;;;12.51;41.83;99797.75;3520411;40;20063;-72
2021/05/16 00:52:46;;;;;;;4.32;1.30;;;;;;;12.52;41.91;99801.31;3520959;40;20051;-72
2021/05/16 00:55:16;;;;;;;4.68;1.20;;;;;;;12.52;41.95;99802.16;3519861;40;20145;-73
2021/05/16 00:57:45;;;;;;;3.75;1.15;;;;;;;12.51;41.84;99797.75;3518701;40;20083;-73
2021/05/16 01:00:16;;;;;;;5.63;1.45;;;;;;;12.53;41.96;99794.81;3526691;40;20054;-72
2021/05/16 01:02:44;;;;;;;4.68;1.52;;;;;;;12.52;41.81;99810.41;3516677;40;20082;-72
2021/05/16 01:05:17;;;;;;;4.88;1.40;;;;;;;12.53;41.87;99806.63;3526328;40;20059;-72
2021/05/16 01:07:48;;;;;;;5.13;1.40;;;;;;;12.53;41.72;99806.63;3519042;40;20161;-72
2021/05/16 01:10:17;;;;;;;4.88;1.17;;;;;;;12.52;41.76;99798.56;3524929;40;20062;-72
2021/05/16 01:12:49;;;;;;;3.47;1.13;;;;;;;12.52;41.81;99804.91;3518025;40;20059;-72
2021/05/16 01:15:19;;;;;;;5.95;1.40;;;;;;;12.51;41.90;99805.97;3526232;40;20059;-72
2021/05/16 01:17:48;;;;;;;4.85;1.17;;;;;;;12.49;41.63;99797.03;3518966;40;20062;-73
2021/05/16 01:20:18;;;;;;;3.63;1.30;;;;;;;12.51;41.82;99796.88;3525876;40;20420;-73
2021/05/16 01:22:54;;;;;;;4.55;1.05;;;;;;;12.49;41.74;99805.28;3517465;40;20061;-72
2021/05/16 01:25:22;;;;;;;3.60;0.93;;;;;;;12.49;41.72;99798.94;3526009;40;20063;-73
2021/05/16 01:27:51;;;;;;;4.18;1.40;;;;;;;12.47;41.89;99796.34;3517262;40;20078;-72
2021/05/16 01:30:20;;;;;;;4.68;1.23;;;;;;;12.48;41.63;99794.47;3525961;40;20113;-73
2021/05/16 01:32:50;;;;;;;3.97;1.05;;;;;;;12.46;41.49;99802.00;3525029;40;20059;-73
2021/05/16 01:35:18;;;;;;;4.05;1.40;;;;;;;12.44;41.48;99802.16;3525051;40;20111;-73
2021/05/16 01:37:47;;;;;;;3.33;1.20;;;;;;;12.43;41.82;99804.06;3516976;40;20123;-73
2021/05/16 01:40:19;;;;;;;4.60;1.15;;;;;;;12.43;41.58;99804.06;3519189;40;20062;-71
2021/05/16 01:42:51;;;;;;;3.63;1.00;;;;;;;12.40;41.68;99798.94;3518260;40;20062;-72
2021/05/16 01:45:23;;;;;;;4.68;1.10;;;;;;;12.41;41.39;99799.78;3520357;40;20066;-72
2021/05/16 01:47:52;;;;;;;5.50;1.27;;;;;;;12.36;41.51;99800.28;3511081;40;20063;-72
2021/05/16 01:50:24;;;;;;;3.22;1.40;;;;;;;12.38;41.51;99800.97;3520742;40;20087;-72
2021/05/16 01:52:54;;;;;;;;;;;;;;;12.10;41.73;99801.47;3513427;40;20099;-72
2021/05/16 01:55:26;;;;;;;3.85;1.20;;;;;;;12.30;41.32;99802.84;3521973;40;19939;-72
2021/05/16 01:58:10;;;;;;;3.72;1.20;;;;;;;12.29;41.32;99804.72;3519558;40;20073;-71
2021/05/16 02:00:52;;;;;;;4.13;1.10;;;;;;;12.26;41.40;99805.09;3521391;40;20128;-71
2021/05/16 02:03:46;;;;;;;4.07;1.20;;;;;;;12.24;41.33;99804.38;3524534;40;20444;-72
2021/05/16 02:06:34;;;;;;;4.43;1.20;;;;;;;12.23;41.52;99801.81;3528920;40;20472;-72
2021/05/16 02:09:06;;;;;;;5.07;1.52;;;;;;;12.22;41.35;99805.56;3522291;40;20091;-72
2021/05/16 02:11:38;;;;;;;4.90;1.30;;;;;;;12.23;41.22;99801.81;3523060;40;20374;-72
2021/05/16 02:14:32;;;;;;;3.38;1.42;;;;;;;12.20;41.25;99797.50;3527197;40;20066;-72
2021/05/16 02:17:13;;;;;;;3.93;1.30;;;;;;;12.16;41.25;99789.81;3517051;40;20058;-72
2021/05/16 02:20:02;;;;;;;5.20;1.52;;;;;;;12.16;41.38;99795.28;3527317;40;20042;-71
2021/05/16 02:22:55;;;;;;;4.43;1.15;;;;;;;12.12;41.19;99793.91;3527962;40;20110;-72
2021/05/16 02:25:43;;;;;;;5.18;1.42;;;;;;;12.11;41.32;99801.25;3526846;40;20396;-72
2021/05/16 02:28:31;;;;;;;6.57;1.38;;;;;;;12.11;41.24;99800.41;3530290;40;20047;-72
2021/05/16 02:31:20;;;;;;;7.43;1.73;;;;;;;12.08;41.19;99798.88;3533294;40;20067;-72
2021/05/16 02:34:11;;;;;;;4.32;1.55;;;;;;;12.06;41.34;99800.06;3532802;40;20059;-72
2021/05/16 02:37:09;;;;;;;5.80;1.55;;;;;;;12.05;41.28;99796.47;3528854;40;20340;-72
2021/05/16 02:40:14;;;;;;;3.70;1.23;;;;;;;12.00;41.31;99793.38;3526348;40;20081;-72
2021/05/16 02:43:04;;;;;;;3.22;1.20;;;;;;;11.97;41.17;99799.19;3528033;40;20047;-73
2021/05/16 02:45:53;;;;;;;6.75;1.40;;;;;;;11.95;41.07;99799.34;3543179;40;20389;-73
2021/05/16 02:48:43;;;;;;;4.65;1.30;;;;;;;11.92;41.13;99796.94;3523589;40;20042;-72
2021/05/16 02:51:30;;;;;;;4.80;1.27;;;;;;;11.90;41.23;99798.09;3524430;40;20066;-72
2021/05/16 02:54:18;;;;;;;3.03;1.30;;;;;;;11.87;41.25;99795.69;3540792;40;20061;-72
2021/05/16 02:57:06;;;;;;;5.18;1.27;;;;;;;11.84;41.34;99793.28;3537563;40;20086;-72
2021/05/16 02:59:55;;;;;;;4.35;1.20;;;;;;;11.80;41.48;99795.50;3531114;40;20031;-72
2021/05/16 03:02:45;;;;;;;4.45;1.13;;;;;;;11.78;41.39;99794.78;3531218;40;20051;-72
2021/05/16 03:05:33;;;;;;;5.32;1.45;;;;;;;11.76;41.58;99791.38;3529595;40;20109;-70
2021/05/16 03:08:21;;;;;;;6.47;1.65;;;;;;;11.74;41.68;99795.31;3538019;40;20086;-72
2021/05/16 03:11:09;;;;;;;5.18;1.52;;;;;;;11.71;41.61;99793.75;3528527;40;20137;-72
2021/05/16 03:14:00;;;;;;;4.32;1.25;;;;;;;11.69;41.54;99790.31;3533841;40;20331;-72
2021/05/16 03:16:52;;;;;;;5.20;1.58;;;;;;;11.67;41.70;99795.13;3540384;40;20396;-72
2021/05/16 03:19:40;;;;;;;2.88;1.10;;;;;;;11.66;41.77;99790.66;3529204;40;20063;-72
2021/05/16 03:22:28;;;;;;;5.80;1.38;;;;;;;11.61;41.72;99788.41;3541652;40;20039;-76
2021/05/16 03:25:16;;;;;;;3.40;1.10;;;;;;;11.60;41.64;99792.19;3528274;40;20132;-72
2021/05/16 03:28:04;;;;;;;5.18;1.45;;;;;;;11.58;41.46;99791.50;3528272;40;20055;-72
2021/05/16 03:30:52;;;;;;;3.58;1.30;;;;;;;11.56;41.74;99792.66;3528666;40;20048;-72
2021/05/16 03:33:40;;;;;;;4.60;1.10;;;;;;;11.53;41.81;99793.84;3525350;40;20070;-72
2021/05/16 03:36:29;;;;;;;5.63;1.10;;;;;;;11.51;41.77;99790.44;3534250;40;20055;-72
2021/05/16 03:39:16;;;;;;;4.95;1.50;;;;;;;11.48;41.72;99796.22;3531491;40;20043;-72
2021/05/16 03:41:44;;;;;;;3.08;1.50;;;;;;;11.48;42.12;99800.84;3527785;40;20125;-72
2021/05/16 03:44:12;;;;;;;4.13;1.27;;;;;;;11.45;42.01;99795.69;3537749;40;20719;-71
2021/05/16 03:47:00;;;;;;;4.60;1.15;;;;;;;11.44;41.96;99802.22;3526126;40;20075;-72
2021/05/16 03:49:28;;;;;;;3.55;1.48;;;;;;;11.43;42.00;99800.50;3530727;40;20115;-72
2021/05/16 03:51:56;;;;;;;4.53;1.30;;;;;;;11.41;41.90;99795.19;3534531;40;20046;-71
2021/05/16 03:54:25;;;;;;;3.70;1.10;;;;;;;11.39;42.05;99801.81;3529596;40;20055;-72
2021/05/16 03:56:52;;;;;;;4.07;1.00;;;;;;;11.38;41.84;99809.19;3530795;40;20058;-72
2021/05/16 03:59:22;;;;;;;3.85;1.23;;;;;;;11.37;41.99;99812.94;3532906;40;20372;-71
2021/05/16 04:02:03;;;;;;;4.60;1.60;;;;;;;11.36;42.28;99811.22;3599182;39;20846;-70
2021/05/16 04:04:31;;;;;;;4.80;1.20;;;;;;;11.34;42.25;99810.53;3593076;40;20378;-70
2021/05/16 04:06:59;;;;;;;3.67;1.17;;;;;;;11.32;42.44;99812.59;3594685;39;20060;-69
2021/05/16 04:09:27;;;;;;;5.13;1.45;;;;;;;11.31;42.22;99808.13;3596751;39;20184;-69
2021/05/16 04:11:55;;;;;;;5.10;1.80;;;;;;;11.31;42.33;99813.59;3590148;39;20141;-71
2021/05/16 04:14:25;;;;;;;4.88;1.30;;;;;;;11.31;42.50;99808.13;3593224;40;20048;-69
2021/05/16 04:16:53;;;;;;;5.90;1.85;;;;;;;11.30;42.37;99806.41;3594126;39;20382;-69
2021/05/16 04:19:21;;;;;;;3.13;1.13;;;;;;;11.31;42.41;99808.13;3593949;39;20091;-71
2021/05/16 04:21:49;;;;;;;4.97;1.15;;;;;;;11.30;42.40;99811.88;3593941;39;20041;-70
2021/05/16 04:24:17;;;;;;;5.22;1.30;;;;;;;11.31;42.45;99818.22;3597312;39;20059;-70
2021/05/16 04:26:45;;;;;;;3.35;1.15;;;;;;;11.32;42.61;99806.25;3593966;39;20044;-67
2021/05/16 04:29:13;;;;;;;3.92;1.20;;;;;;;11.32;42.40;99811.72;3595305;39;20482;-67
2021/05/16 04:31:44;;;;;;;2.53;1.13;;;;;;;11.32;42.76;99817.19;3593424;39;20045;-68
2021/05/16 04:34:12;;;;;;;4.53;1.42;;;;;;;11.33;42.59;99819.78;3593625;40;20056;-67
2021/05/16 04:36:41;;;;;;;4.10;1.10;;;;;;;11.35;42.65;99823.22;3594861;39;20056;-68
2021/05/16 04:39:09;;;;;;;3.45;1.20;;;;;;;11.36;42.54;99818.59;3593072;39;20076;-66
2021/05/16 04:41:36;;;;;;;3.78;1.20;;;;;;;11.37;42.77;99820.28;3583886;39;20075;-67
2021/05/16 04:44:05;;;;;;;4.95;1.65;;;;;;;11.39;42.77;99819.13;3594116;40;20084;-67
2021/05/16 04:46:35;;;;;;;4.30;1.60;;;;;;;11.41;42.98;99818.97;3595110;40;20145;-69
2021/05/16 04:49:03;;;;;;;4.50;1.50;;;;;;;11.44;43.04;99818.66;3591425;39;20044;-70
2021/05/16 04:51:31;;;;;;;3.63;1.10;;;;;;;11.47;43.06;99824.63;3595114;39;20430;-70
2021/05/16 04:53:59;;;;;;;3.55;1.20;;;;;;;11.53;43.30;99828.59;3597616;39;20071;-69
2021/05/16 04:56:27;;;;;;;4.57;1.45;;;;;;;11.58;43.41;99824.34;3594335;40;20133;-69
2021/05/16 04:58:54;;;;;;;4.43;1.45;;;;;;;11.67;43.52;99830.72;3595023;39;20348;-70
2021/05/16 05:01:22;;;;;;;5.30;1.40;;;;;;;11.81;44.20;99821.03;3593676;39;20212;-71
2021/05/16 05:03:50;;;;;;;6.60;1.55;;;;;;;12.06;44.88;99828.34;3592665;40;20572;-70
2021/05/16 05:06:18;;;;;;;3.05;1.30;;;;;;;12.43;45.74;99841.59;3594202;39;20326;-70
2021/05/16 05:08:45;;;;;;;3.30;1.52;;;;;;;12.89;45.67;99836.50;3594335;39;20096;-70
2021/05/16 05:11:13;;;;;;;3.25;1.33;;;;;;;13.36;44.85;99834.72;3592492;39;20593;-70
2021/05/16 05:13:42;;;;;;;4.82;1.52;;;;;;;13.76;44.31;99832.88;3586663;40;20092;-70
2021/05/16 05:16:10;;;;;;;4.95;1.70;;;;;;;14.07;42.60;99835.72;3586899;40;20067;-70
2021/05/16 05:18:37;;;;;;;2.88;1.42;;;;;;;14.30;42.16;99833.84;3587370;40;20052;-69
2021/05/16 05:21:07;;;;;;;3.88;1.30;;;;;;;14.45;41.01;99836.66;3588017;40;20424;-69
2021/05/16 05:23:35;;;;;;;2.75;1.35;;;;;;;14.53;41.08;99829.22;3587541;40;20421;-69
2021/05/16 05:26:03;;;;;;;3.13;1.20;;;;;;;14.66;41.51;99826.69;3583901;40;20052;-70
2021/05/16 05:28:31;;;;;;;3.20;1.10;;;;;;;14.86;41.41;99829.84;3586453;40;20138;-69
2021/05/16 05:30:59;;;;;;;3.63;1.85;;;;;;;15.00;40.69;99828.16;3585024;40;20060;-70
2021/05/16 05:33:26;;;;;;;2.83;1.30;;;;;;;15.15;40.63;99831.81;3587107;40;20044;-69
2021/05/16 05:35:54;;;;;;;4.43;1.65;;;;;;;15.26;40.64;99836.88;3586875;40;20243;-70
2021/05/16 05:38:21;;;;;;;4.32;1.80;;;;;;;15.35;39.61;99835.75;3586408;40;20068;-70
2021/05/16 05:40:49;;;;;;;3.60;1.40;;;;;;;15.43;39.98;99840.31;3587272;40;20493;-70
2021/05/16 05:43:17;;;;;;;5.88;1.77;;;;;;;15.48;39.50;99835.06;3586361;40;20060;-70
2021/05/16 05:45:45;;;;;;;4.05;1.20;;;;;;;15.52;39.04;99835.56;3586406;40;20049;-70
2021/05/16 05:48:12;;;;;;;3.53;1.40;;;;;;;15.52;39.20;99838.31;3584888;40;20668;-70
2021/05/16 05:50:40;;;;;;;3.38;1.10;;;;;;;15.52;38.98;99841.06;3585564;40;20060;-70
2021/05/16 05:53:08;;;;;;;4.82;1.60;;;;;;;15.49;38.61;99841.44;3587239;40;20141;-70
2021/05/16 05:55:35;;;;;;;4.07;1.35;;;;;;;15.43;38.42;99840.31;3586681;40;20175;-70
2021/05/16 05:58:03;;;;;;;4.50;1.48;;;;;;;15.37;38.49;99841.06;3586279;40;20067;-69
2021/05/16 06:00:30;;;;;;;2.75;1.30;;;;;;;15.29;38.34;99839.25;3587607;39;20245;-69
2021/05/16 06:03:00;;;;;;;3.65;1.23;;;;;;;15.22;38.68;99838.31;3586667;40;20056;-70
2021/05/16 06:05:29;;;;;;;2.63;1.08;;;;;;;15.16;38.57;99849.19;3586840;40;20051;-70
2021/05/16 06:07:56;;;;;;;4.60;1.20;;;;;;;15.06;38.56;99850.31;3586242;40;20076;-70
2021/05/16 06:10:25;;;;;;;3.78;1.42;;;;;;;14.98;38.33;99853.13;3586707;40;20084;-70
2021/05/16 06:12:53;;;;;;;3.42;1.13;;;;;;;14.90;38.34;99860.63;3577511;40;20077;-69
2021/05/16 06:15:22;;;;;;;4.05;1.50;;;;;;;14.79;39.08;99853.66;3585914;40;20082;-70
2021/05/16 06:17:50;;;;;;;3.78;1.48;;;;;;;14.69;38.95;99853.00;3586571;40;20582;-69
2021/05/16 06:20:20;;;;;;;5.00;1.60;;;;;;;14.59;39.22;99858.75;3584877;40;20400;-68
2021/05/16 06:22:47;;;;;;;3.97;1.42;;;;;;;14.48;39.40;99853.69;3585832;40;20044;-69
2021/05/16 06:25:16;;;;;;;4.05;1.40;;;;;;;14.39;39.36;99851.16;3585302;40;20058;-68
2021/05/16 06:27:43;;;;;;;3.72;1.30;;;;;;;14.29;39.63;99862.41;3584978;40;20449;-67
2021/05/16 06:30:12;;;;;;;4.65;1.38;;;;;;;14.22;39.98;99864.16;3584075;40;20033;-68
2021/05/16 06:32:42;;;;;;;4.28;1.30;;;;;;;14.11;39.53;99859.03;3585794;40;20457;-68
2021/05/16 06:35:10;;;;;;;4.97;1.63;;;;;;;14.06;40.48;99858.75;3585523;40;20056;-68
2021/05/16 06:37:39;;;;;;;3.47;1.20;;;;;;;13.99;40.33;99875.09;3585523;40;20286;-69
2021/05/16 06:40:08;;;;;;;8.60;2.00;;;;;;;13.92;40.06;99868.56;3588915;40;20060;-68
2021/05/16 06:42:36;;;;;;;4.43;1.60;;;;;;;13.84;40.10;99871.31;3583282;40;20056;-68
2021/05/16 06:45:05;;;;;;;3.95;1.80;;;;;;;13.78;40.15;99866.53;3587229;40;20456;-68
2021/05/16 06:47:33;;;;;;;3.53;1.88;;;;;;;13.70;40.62;99872.94;3587253;40;20094;-68
2021/05/16 06:50:01;;;;;;;3.33;1.58;;;;;;;13.64;40.75;99870.03;3586308;40;20088;-68
2021/05/16 06:52:28;;;;;;;3.55;1.60;;;;;;;13.58;40.92;99870.75;3587645;40;20127;-68
2021/05/16 06:54:57;;;;;;;4.50;1.70;;;;;;;13.54;40.96;99871.09;3589236;40;20137;-68
2021/05/16 06:57:24;;;;;;;6.05;1.95;;;;;;;13.48;41.07;99876.44;3585720;40;20059;-68
2021/05/16 06:59:52;;;;;;;4.70;1.80;;;;;;;13.41;41.39;99868.03;3586624;40;20105;-67
2021/05/16 07:02:20;;;;;;;6.05;1.92;;;;;;;13.37;41.25;99877.66;3586877;40;20092;-67
2021/05/16 07:04:52;;;;;;;4.50;1.50;;;;;;;13.31;41.87;99875.59;3577207;40;20133;-69
2021/05/16 07:07:20;;;;;;;4.63;1.50;;;;;;;13.30;41.31;99870.28;3586465;40;20052;-68
2021/05/16 07:09:48;;;;;;;4.53;1.60;;;;;;;13.27;41.56;99867.88;3590269;40;20429;-67
2021/05/16 07:12:19;;;;;;;3.47;1.40;;;;;;;13.25;42.00;99879.06;3589397;39;20055;-67
2021/05/16 07:14:47;;;;;;;4.22;1.77;;;;;;;13.21;42.11;99877.69;3601852;39;20060;-68
2021/05/16 07:17:14;;;;;;;3.55;1.35;;;;;;;13.19;42.21;99876.97;3580783;40;20074;-68
2021/05/16 07:19:42;;;;;;;2.60;1.08;;;;;;;13.16;42.14;99883.69;3586625;40;20076;-67
2021/05/16 07:22:10;;;;;;;4.50;1.60;;;;;;;13.14;42.36;99879.41;3585648;40;20044;-68
2021/05/16 07:24:37;;;;;;;4.15;1.40;;;;;;;13.14;42.30;99884.91;3591709;40;20036;-69
2021/05/16 07:27:05;;;;;;;2.95;1.30;;;;;;;13.13;42.91;99884.03;3586328;39;20141;-69
2021/05/16 07:29:34;;;;;;;2.88;1.30;;;;;;;13.12;42.52;99876.81;3587286;40;20506;-69
2021/05/16 07:32:05;;;;;;;2.30;1.40;;;;;;;13.13;43.08;99877.69;3584376;40;20427;-68
2021/05/16 07:34:33;;;;;;;4.00;1.30;;;;;;;13.14;42.90;99879.41;3585223;40;20651;-68
2021/05/16 07:37:03;;;;;;;3.88;1.45;;;;;;;13.17;43.46;99882.63;3587820;39;20160;-68
2021/05/16 07:39:30;;;;;;;3.60;1.60;;;;;;;13.22;43.43;99878.53;3583330;40;20036;-68
2021/05/16 07:41:58;;;;;;;5.10;1.33;;;;;;;13.26;43.20;99882.63;3585805;40;20109;-68
2021/05/16 07:44:27;;;;;;;4.97;1.50;;;;;;;13.30;43.61;99886.75;3585735;40;20079;-69
2021/05/16 07:46:55;;;;;;;4.55;1.67;;;;;;;13.35;43.29;99890.69;3582657;40;20455;-69
2021/05/16 07:49:23;;;;;;;3.25;1.75;;;;;;;13.39;43.46;99885.72;3586879;40;20149;-69
2021/05/16 07:51:51;;;;;;;2.75;1.55;;;;;;;13.44;43.35;99892.41;3587051;40;20514;-68
2021/05/16 07:54:18;;;;;;;4.53;1.45;;;;;;;13.48;43.69;99888.28;3586677;40;20037;-68
2021/05/16 07:56:46;;;;;;;4.53;1.60;;;;;;;13.53;43.94;99891.34;3601661;39;20479;-69
2021/05/16 07:59:14;;;;;;;3.88;1.35;;;;;;;13.57;43.74;99896.50;3587160;40;20048;-69
2021/05/16 08:01:42;;;;;;;4.25;1.50;;;;;;;13.59;43.42;99889.78;3583955;40;20285;-68
2021/05/16 08:04:10;;;;;;;3.97;1.38;;;;;;;13.65;43.32;99885.50;3586121;40;20088;-69
2021/05/16 08:06:38;;;;;;;4.65;1.40;;;;;;;13.68;42.97;99888.72;3583890;40;20059;-68
2021/05/16 08:09:06;;;;;;;6.85;1.90;;;;;;;13.71;43.58;99890.28;3586328;40;20576;-69
2021/05/16 08:11:33;;;;;;;3.03;1.80;;;;;;;13.72;42.95;99886.50;3588140;39;20064;-68
2021/05/16 08:14:03;;;;;;;6.70;1.90;;;;;;;13.76;43.07;99894.19;3586590;40;20067;-68
2021/05/16 08:16:33;;;;;;;8.98;2.03;;;;;;;13.77;42.87;99878.56;3586467;40;20032;-68
2021/05/16 08:19:02;;;;;;;3.25;1.10;;;;;;;13.81;43.05;99883.56;3585645;40;20025;-69
2021/05/16 08:21:32;;;;;;;3.65;1.50;;;;;;;13.89;43.22;99880.81;3585692;40;20130;-69
2021/05/16 08:24:01;;;;;;;4.90;1.50;;;;;;;13.95;43.54;99878.38;3584351;40;20059;-68
2021/05/16 08:26:28;;;;;;;3.45;1.20;;;;;;;14.02;43.43;99882.97;3583086;40;20084;-68
2021/05/16 08:28:56;;;;;;;3.30;1.08;;;;;;;14.11;43.66;99881.91;3583480;40;20578;-69
2021/05/16 08:31:23;;;;;;;4.15;1.25;;;;;;;14.21;43.35;99877.06;3584519;40;20571;-68
2021/05/16 08:33:51;;;;;;;4.65;1.48;;;;;;;14.30;43.00;99878.72;3585004;40;20146;-67
2021/05/16 08:36:19;;;;;;;4.55;1.42;;;;;;;14.39;43.04;99886.94;3623354;22;20043;-72
2021/05/16 08:38:47;;;;;;;3.53;1.20;;;;;;;14.47;42.55;99886.88;3587195;40;20048;-72
2021/05/16 08:41:15;;;;;;;3.65;1.15;;;;;;;14.52;41.96;99877.03;3585497;39;20052;-72
2021/05/16 08:43:44;;;;;;;3.58;1.13;;;;;;;14.55;41.78;99881.34;3586495;40;20052;-71
2021/05/16 08:46:28;;;;;;;2.45;1.10;;;;;;;14.59;42.03;99874.41;3592661;39;20062;-74
2021/05/16 08:48:56;;;;;;;2.65;1.10;;;;;;;14.58;41.94;99879.06;3587822;39;20306;-73
2021/05/16 08:51:30;;;;;;;3.30;1.08;;;;;;;14.63;41.92;99875.78;3586421;40;20045;-73
2021/05/16 08:53:59;;;;;;;4.25;1.27;;;;;;;14.66;42.14;99881.75;3587116;40;20156;-73
2021/05/16 08:56:26;;;;;;;3.20;1.20;;;;;;;14.68;42.21;99873.31;3597338;39;20044;-74
2021/05/16 08:58:59;;;;;;;3.63;1.30;;;;;;;14.75;42.46;99877.03;3594286;40;20561;-73
2021/05/16 09:01:33;;;;;;;3.03;1.30;;;;;;;14.83;42.15;99874.25;3583242;40;20059;-71
2021/05/16 09:04:20;;;;;;;4.45;1.42;;;;;;;14.95;42.17;99861.78;3597366;40;20136;-72
2021/05/16 09:06:52;;;;;;;3.25;1.10;;;;;;;15.06;42.29;99863.25;3588936;40;20060;-72
2021/05/16 09:09:33;;;;;;;2.87;1.00;;;;;;;15.16;41.60;99869.34;3592977;40;20107;-71
2021/05/16 09:12:07;;;;;;;2.92;1.15;;;;;;;15.27;41.80;99871.66;3587847;40;20048;-71
2021/05/16 09:14:49;;;;;;;3.47;1.33;;;;;;;15.37;41.07;99863.13;3597178;40;20040;-70
2021/05/16 09:17:26;;;;;;;4.30;1.40;;;;;;;15.48;40.36;99861.81;3595725;40;20442;-71
2021/05/16 09:19:55;;;;;;;2.88;1.10;;;;;;;15.55;40.71;99851.75;3591985;40;20060;-71
2021/05/16 09:22:35;;;;;;;3.80;1.50;;;;;;;15.64;40.37;99859.72;3593507;40;20172;-71
2021/05/16 09:25:25;;;;;;;4.35;1.20;;;;;;;15.66;40.07;99857.66;3593966;40;20048;-70
2021/05/16 09:28:09;;;;;;;3.20;1.02;;;;;;;15.68;39.79;99866.59;3591867;40;20065;-71
2021/05/16 09:30:38;;;;;;;4.68;1.73;;;;;;;15.75;39.11;99870.31;3593819;40;20059;-72
2021/05/16 09:33:11;;;;;;;4.22;1.48;;;;;;;15.80;38.81;99878.03;3596875;40;20055;-72
2021/05/16 09:35:42;;;;;;;3.60;1.15;;;;;;;15.79;38.61;99890.94;3592820;40;20141;-73
2021/05/16 09:38:19;;;;;;;2.22;0.98;;;;;;;15.75;38.63;99883.22;3581870;40;20128;-72
2021/05/16 09:40:50;;;;;;;2.67;1.13;;;;;;;15.71;39.03;99870.88;3594635;40;20052;-73
2021/05/16 09:43:20;;;;;;;3.40;0.90;;;;;;;15.63;39.11;99873.69;3594195;40;20092;-73
2021/05/16 09:45:51;;;;;;;2.13;1.00;;;;;;;15.58;39.43;99870.63;3588854;40;20086;-69
2021/05/16 09:48:31;;;;;;;2.08;1.00;;;;;;;15.55;40.20;99871.91;3590112;40;20089;-69
2021/05/16 09:51:15;;;;;;;2.92;1.10;;;;;;;15.53;40.58;99868.47;3585207;40;20052;-69
2021/05/16 09:53:52;;;;;;;3.05;0.93;;;;;;;15.53;41.24;99859.34;3596087;40;20056;-69
2021/05/16 09:56:23;;;;;;;3.72;1.05;;;;;;;15.54;41.05;99858.28;3595307;40;20437;-69
2021/05/16 09:58:53;;;;;;;3.85;1.10;;;;;;;15.54;41.25;99861.91;3597136;39;20055;-69
2021/05/16 10:01:22;;;;;;;3.90;1.10;;;;;;;15.60;41.19;99863.03;3594804;40;20129;-69
2021/05/16 10:03:50;;;;;;;3.33;1.30;;;;;;;15.64;41.36;99858.91;3597091;40;20405;-69
2021/05/16 10:06:19;;;;;;;4.25;1.10;;;;;;;15.70;41.01;99847.97;3596625;40;20060;-69
2021/05/16 10:08:48;;;;;;;3.65;1.10;;;;;;;15.76;41.00;99849.97;3586321;40;20070;-69
2021/05/16 10:11:20;;;;;;;3.30;1.02;;;;;;;15.84;41.00;99848.16;3594396;40;20045;-70
2021/05/16 10:13:53;;;;;;;3.13;1.00;;;;;;;15.91;40.64;99849.94;3597045;40;20105;-69
2021/05/16 10:16:21;;;;;;;2.83;0.98;;;;;;;15.93;40.25;99849.75;3581775;40;20561;-69
2021/05/16 10:18:52;;;;;;;5.10;1.50;;;;;;;16.00;41.20;99859.84;3593868;39;20569;-69
2021/05/16 10:21:24;;;;;;;3.97;1.30;;;;;;;16.07;40.77;99865.44;3596482;39;20048;-69
2021/05/16 10:24:08;;;;;;;2.78;1.10;;;;;;;16.08;41.48;99848.69;3586601;40;20071;-68
2021/05/16 10:26:37;;;;;;;2.45;0.80;;;;;;;16.12;40.65;99849.16;3596623;40;20047;-69
2021/05/16 10:29:08;;;;;;;2.15;0.75;;;;;;;16.18;40.20;99840.97;3587314;40;20056;-69
2021/05/16 10:31:41;;;;;;;1.65;0.60;;;;;;;16.22;39.54;99835.91;3594429;39;20488;-69
2021/05/16 10:34:45;;;;;;;2.38;0.80;;;;;;;16.24;39.14;99831.06;3594923;40;20113;-69
2021/05/16 10:37:37;;;;;;;1.27;0.52;;;;;;;16.26;39.04;99828.97;3588950;40;20047;-68
2021/05/16 10:40:21;;;;;;;1.90;0.52;;;;;;;16.27;39.38;99829.81;3595699;40;20321;-68
2021/05/16 10:42:53;;;;;;;1.42;0.60;;;;;;;16.32;39.49;99824.56;3596378;40;20144;-69
2021/05/16 10:45:32;;;;;;;1.15;0.50;;;;;;;16.38;39.54;99807.25;3577563;40;20056;-69
2021/05/16 10:48:16;;;;;;;1.90;0.63;;;;;;;16.42;39.03;99811.31;3586227;40;20317;-68
2021/05/16 10:50:52;;;;;;;1.85;0.50;;;;;;;16.46;38.38;99802.44;3586315;40;20405;-69
2021/05/16 10:53:42;;;;;;;1.33;0.55;;;;;;;16.48;37.32;99797.59;3597103;40;20051;-70
2021/05/16 10:56:29;;;;;;;1.05;0.57;;;;;;;16.55;38.28;99795.75;3587861;40;20058;-68
2021/05/16 10:58:56;;;;;;;2.10;0.85;;;;;;;16.58;38.61;99790.91;3595168;40;20091;-69
2021/05/16 11:01:36;;;;;;;1.98;0.70;;;;;;;16.67;37.32;99781.44;3594563;39;20059;-68
2021/05/16 11:04:06;;;;;;;2.35;0.90;;;;;;;16.68;38.31;99786.75;3595266;40;20054;-69
2021/05/16 11:06:59;;;;;;;2.08;0.90;;;;;;;16.72;36.57;99790.81;3598360;40;20056;-69
2021/05/16 11:09:34;;;;;;;1.35;0.70;;;;;;;16.73;37.34;99781.47;3599619;39;20060;-69
2021/05/16 11:12:06;;;;;;;4.25;0.93;;;;;;;16.81;36.02;99778.59;3586913;40;20082;-69
2021/05/16 11:14:38;;;;;;;1.90;0.90;;;;;;;16.82;37.16;99779.44;3593719;40;20124;-69
2021/05/16 11:17:11;;;;;;;1.95;0.60;;;;;;;16.84;36.44;99769.91;3585695;40;20140;-68
2021/05/16 11:19:39;;;;;;;2.33;0.70;;;;;;;16.87;36.67;99774.19;3586582;40;20067;-69
2021/05/16 11:22:12;;;;;;;4.43;1.13;;;;;;;16.98;35.61;99770.00;3593936;40;20072;-69
2021/05/16 11:24:46;;;;;;;3.00;0.80;;;;;;;17.02;35.83;99772.19;3591391;40;20155;-69
2021/05/16 11:27:20;;;;;;;1.55;0.70;;;;;;;17.08;35.96;99762.22;3592276;40;20059;-69
2021/05/16 11:30:08;;;;;;;2.22;0.90;;;;;;;17.12;35.77;99763.53;3591118;40;20059;-69
2021/05/16 11:32:37;;;;;;;2.80;0.98;;;;;;;17.17;36.70;99767.41;3593323;39;20195;-69
2021/05/16 11:35:25;;;;;;;4.40;1.10;;;;;;;17.24;36.10;99756.38;3595217;40;20064;-69
2021/05/16 11:37:56;;;;;;;3.03;1.15;;;;;;;17.27;35.60;99756.88;3575754;40;20059;-69
2021/05/16 11:40:28;;;;;;;3.05;1.13;;;;;;;17.32;35.82;99750.72;3593527;39;20067;-69
2021/05/16 11:43:02;;;;;;;3.10;1.13;;;;;;;17.38;35.02;99762.88;3586913;40;20054;-70
2021/05/16 11:45:38;;;;;;;3.58;1.10;;;;;;;17.43;35.03;99760.38;3594068;40;20082;-70
2021/05/16 11:48:24;;;;;;;2.53;0.90;;;;;;;17.47;34.82;99762.50;3594748;40;20428;-69
2021/05/16 11:50:52;;;;;;;1.98;0.90;;;;;;;17.50;35.50;99752.97;3595574;40;20562;-69
2021/05/16 11:53:22;;;;;;;3.10;1.00;;;;;;;17.57;34.85;99743.66;3594010;40;20152;-74
2021/05/16 11:55:50;;;;;;;2.88;1.02;;;;;;;17.61;34.36;99733.03;3586151;40;20091;-74
2021/05/16 11:58:18;;;;;;;2.42;1.13;;;;;;;17.64;34.78;99743.66;3595515;39;20044;-74
2021/05/16 12:00:50;;;;;;;2.13;0.85;;;;;;;17.66;34.13;99734.13;3586487;40;20063;-74